Coal Bluff, Indiana
Current Conditions -  °F | °C
As of 6:53 AM on Wednesday 28 Jan 2015 (Local Time) from KHUF Reporting Station
Clear Clear  
Wind Chill: 12°   Ceiling: Unl
Heat Index: 20°   Visibility: 10mi
Dew Point: 14°   Wind: 6mph
Humidity: 78%   Direction: 140°SE
Pressure: 30.31"   Gusts: NA
Location:  39.6386°N, 87.3045°W
Report Text: KHUF 281153Z 14005KT 10SM CLR M07/M10 A3031 RMK AO2 SLP271 I6000 T10671100 11061 21083 53002
Loading
Personal Weather Stations






























Interactive Weather Map New forecast layout! Learn more

10-Day Weather Forecast

Advertisements
Track Severe Weather on mobile